Sligo Airport - TAF
(Terminal Area Forecast)

Issued at 22:21 UTC on Sun. 13-Oct-19

--- METARS(SA) ---

METAR EISG(SLIGO) 132200Z AUTO VRB01KT CAVOK 07/07 Q1004 =

--- TAFS() ---

TAF EISG(SLIGO) 132000Z 1321/1406 19007KT 9999 FEW018 SCT030 BECMG

1321/1323 15006KT PROB30 TEMPO 1322/1401 4000 BR TEMPO 1401/1406 4000

BR PROB30 TEMPO 1401/1406 2000 =

--- SIGMETS(WS) ---

IE - No VALID SIGMETS/Warnings FOR THIS AREA

--- SIGMETS Volcanic(WV) ---

IE - No VALID SIGMETS/Warnings FOR THIS AREA

--- SIGMETS(WS) ---

UK - No VALID SIGMETS/Warnings FOR THIS AREA

Sligo Airport - METARs

Latest METARs for Sligo and Donegal Airports - updated every 30 mins